createdAt,value
2023-02-13T00:00:44.063Z,15.60
2023-02-13T00:05:48.991Z,15.03
2023-02-13T00:10:56.168Z,13.80
2023-02-13T00:16:06.647Z,14.17
2023-02-13T00:21:13.978Z,13.73
2023-02-13T00:26:20.288Z,14.23
2023-02-13T00:31:28.246Z,14.03
2023-02-13T00:36:37.774Z,15.03
2023-02-13T00:41:45.936Z,15.17
2023-02-13T00:46:53.572Z,16.70
2023-02-13T00:51:58.622Z,16.83
2023-02-13T00:57:03.530Z,16.70
2023-02-13T01:02:11.275Z,17.90
2023-02-13T01:07:20.270Z,19.13
2023-02-13T01:12:25.219Z,19.40
2023-02-13T01:17:33.942Z,20.77
2023-02-13T01:22:39.055Z,23.43
2023-02-13T01:27:44.942Z,24.87
2023-02-13T01:32:52.658Z,25.97
2023-02-13T01:38:08.998Z,25.17
2023-02-13T01:43:16.633Z,29.17
2023-02-13T01:48:27.312Z,29.37
2023-02-13T01:53:36.399Z,27.90
2023-02-13T01:58:46.779Z,30.63
2023-02-13T02:04:01.251Z,29.30
2023-02-13T02:09:19.026Z,30.23
2023-02-13T02:14:25.645Z,30.93
2023-02-13T02:19:47.537Z,30.47
2023-02-13T02:25:25.116Z,28.57
2023-02-13T02:30:49.337Z,31.47
2023-02-13T02:36:08.816Z,28.10
2023-02-13T02:41:44.583Z,28.73
2023-02-13T02:47:20.050Z,28.00
2023-02-13T02:52:34.523Z,28.53
2023-02-13T02:58:03.310Z,25.93
2023-02-13T03:03:27.026Z,28.67
2023-02-13T03:08:48.372Z,26.50
2023-02-13T03:13:53.667Z,25.63
2023-02-13T03:19:13.963Z,27.27
2023-02-13T03:24:31.076Z,27.33
2023-02-13T03:29:59.808Z,27.00
2023-02-13T03:35:31.282Z,27.60
2023-02-13T03:41:02.792Z,25.50
2023-02-13T03:46:10.114Z,26.70
2023-02-13T03:51:24.120Z,25.10
2023-02-13T03:56:46.073Z,25.43
2023-02-13T04:01:57.486Z,26.93
2023-02-13T04:07:06.820Z,26.17
2023-02-13T04:12:22.015Z,25.43
2023-02-13T04:17:38.694Z,22.63
2023-02-13T04:22:49.569Z,21.93
2023-02-13T04:27:57.130Z,23.67
2023-02-13T04:33:03.383Z,21.93
2023-02-13T04:38:10.724Z,22.17
2023-02-13T04:43:18.273Z,20.70
2023-02-13T04:48:25.852Z,19.97
2023-02-13T04:53:32.105Z,17.87
2023-02-13T04:58:39.963Z,18.93
2023-02-13T05:03:45.199Z,18.73
2023-02-13T05:08:50.217Z,16.93
2023-02-13T05:14:00.175Z,15.80
2023-02-13T05:19:07.194Z,15.60
2023-02-13T05:24:14.694Z,16.03
2023-02-13T05:29:23.029Z,14.97
2023-02-13T05:34:29.817Z,13.33
2023-02-13T05:39:34.849Z,12.67
2023-02-13T05:44:42.673Z,12.30
2023-02-13T05:49:47.701Z,11.07
2023-02-13T05:54:52.868Z,10.27
2023-02-13T06:00:00.437Z,14.10
2023-02-13T06:05:08.662Z,10.90
2023-02-13T06:10:17.072Z,11.60
2023-02-13T06:15:26.854Z,12.07
2023-02-13T06:20:32.035Z,11.33
2023-02-13T06:25:37.529Z,14.30
2023-02-13T06:30:46.696Z,10.93
2023-02-13T06:35:53.184Z,11.87
2023-02-13T06:41:09.406Z,10.77
2023-02-13T06:46:25.819Z,16.40
2023-02-13T06:51:30.841Z,11.33
2023-02-13T06:56:37.492Z,11.50
2023-02-13T07:01:45.070Z,11.80
2023-02-13T07:06:54.877Z,11.50
2023-02-13T07:11:59.872Z,11.70
2023-02-13T07:17:07.901Z,11.10
2023-02-13T07:22:12.911Z,12.00
2023-02-13T07:27:18.688Z,11.77
2023-02-13T07:32:27.651Z,11.00
2023-02-13T07:37:36.656Z,14.90
2023-02-13T07:42:41.872Z,14.07
2023-02-13T07:48:09.746Z,14.23
2023-02-13T07:53:15.497Z,14.23
2023-02-13T07:58:25.064Z,16.10
2023-02-13T08:03:32.870Z,17.60
2023-02-13T08:08:39.425Z,18.07
2023-02-13T08:13:45.401Z,17.73
2023-02-13T08:18:53.881Z,18.43
2023-02-13T08:24:01.948Z,18.87
2023-02-13T08:29:07.796Z,20.43
2023-02-13T08:34:19.365Z,22.00
2023-02-13T08:39:24.730Z,21.03
2023-02-13T08:44:32.501Z,22.27
2023-02-13T08:49:40.156Z,23.10
2023-02-13T08:54:47.734Z,20.77
2023-02-13T08:59:58.480Z,22.17
2023-02-13T09:05:08.812Z,22.50
2023-02-13T09:10:18.745Z,21.67
2023-02-13T09:15:31.168Z,19.37
2023-02-13T09:20:38.837Z,19.97
2023-02-13T09:25:45.256Z,20.40
2023-02-13T09:31:20.740Z,17.87
2023-02-13T09:36:39.538Z,19.57
2023-02-13T09:41:50.550Z,20.57
2023-02-13T09:46:55.910Z,19.53
2023-02-13T09:52:04.484Z,20.07
2023-02-13T09:57:19.353Z,17.33
2023-02-13T10:02:53.278Z,17.17
2023-02-13T10:08:14.730Z,16.20
2023-02-13T10:13:32.094Z,15.30
2023-02-13T10:18:45.945Z,16.63
2023-02-13T10:24:00.160Z,14.13
2023-02-13T10:34:57.948Z,12.40
2023-02-13T10:40:05.617Z,13.93
2023-02-13T10:45:30.101Z,13.77
2023-02-13T10:50:46.222Z,12.60
2023-02-13T10:56:23.284Z,10.07
2023-02-13T11:01:36.975Z,10.97
2023-02-13T11:06:46.793Z,11.60
2023-02-13T11:11:57.962Z,10.50
2023-02-13T11:17:06.255Z,10.13
2023-02-13T11:22:18.411Z,8.60
2023-02-13T11:27:30.843Z,9.53
2023-02-13T11:32:39.659Z,9.53
2023-02-13T11:37:44.713Z,8.50
2023-02-13T11:42:54.289Z,10.18
2023-02-13T11:47:59.841Z,8.67
2023-02-13T11:53:09.117Z,10.23
2023-02-13T11:58:30.979Z,9.43
2023-02-13T12:03:36.271Z,9.87
2023-02-13T12:08:50.119Z,10.87
2023-02-13T12:14:00.423Z,10.60
2023-02-13T12:19:13.262Z,10.07
2023-02-13T12:24:34.820Z,10.67
2023-02-13T12:30:22.668Z,9.87
2023-02-13T12:35:48.643Z,9.37
2023-02-13T12:41:11.256Z,9.70
2023-02-13T12:46:31.380Z,9.50
2023-02-13T12:51:50.153Z,9.00
2023-02-13T12:57:36.208Z,9.13
2023-02-13T13:03:19.055Z,9.47
2023-02-13T13:08:41.368Z,8.03
2023-02-13T13:14:03.160Z,9.53
2023-02-13T13:19:29.132Z,8.97
2023-02-13T13:24:47.492Z,8.53
2023-02-13T13:29:58.722Z,8.60
2023-02-13T13:35:07.193Z,8.50
2023-02-13T13:40:31.424Z,7.70
2023-02-13T13:45:48.663Z,8.47
2023-02-13T13:50:57.462Z,7.10
2023-02-13T13:56:10.956Z,6.93
2023-02-13T14:01:32.385Z,7.17
2023-02-13T14:07:22.889Z,7.63
2023-02-13T14:12:51.932Z,7.23
2023-02-13T14:17:58.820Z,7.60
2023-02-13T14:23:11.612Z,7.47
2023-02-13T14:28:36.701Z,8.03
2023-02-13T14:33:42.059Z,8.77
2023-02-13T14:38:47.091Z,8.77
2023-02-13T14:43:59.446Z,9.53
2023-02-13T14:49:11.859Z,9.20
2023-02-13T14:54:27.667Z,8.07
2023-02-13T14:59:39.393Z,8.40
2023-02-13T15:04:47.936Z,8.03
2023-02-13T15:09:56.703Z,8.87
2023-02-13T15:15:26.534Z,9.17
2023-02-13T15:20:37.959Z,11.60
2023-02-13T15:25:43.712Z,10.40
2023-02-13T15:31:01.914Z,10.63
2023-02-13T15:36:09.774Z,10.03
2023-02-13T15:41:21.803Z,10.00
2023-02-13T15:46:33.294Z,9.70
2023-02-13T15:51:38.481Z,10.67
2023-02-13T15:56:48.762Z,11.40
2023-02-13T16:01:58.456Z,9.70
2023-02-13T16:07:04.544Z,11.33
2023-02-13T16:12:20.741Z,10.87
2023-02-13T16:17:32.484Z,11.20
2023-02-13T16:22:45.914Z,11.87
2023-02-13T16:27:54.834Z,12.73
2023-02-13T16:33:27.315Z,12.23
2023-02-13T16:38:36.386Z,11.37
2023-02-13T16:43:51.821Z,11.97
2023-02-13T16:49:16.584Z,11.37
2023-02-13T16:54:32.190Z,12.17
2023-02-13T16:59:45.827Z,12.17
2023-02-13T17:04:57.726Z,12.27
2023-02-13T17:10:05.231Z,12.67
2023-02-13T17:15:14.805Z,11.83
2023-02-13T17:20:25.312Z,12.97
2023-02-13T17:25:35.835Z,13.03
2023-02-13T17:30:41.861Z,15.33
2023-02-13T17:35:49.750Z,14.17
2023-02-13T17:40:55.430Z,13.47
2023-02-13T17:46:01.468Z,13.13
2023-02-13T17:51:14.686Z,14.70
2023-02-13T17:56:19.870Z,14.37
2023-02-13T18:01:26.184Z,14.23
2023-02-13T18:06:34.306Z,15.33
2023-02-13T18:11:43.309Z,15.20
2023-02-13T18:16:50.855Z,16.57
2023-02-13T18:21:58.682Z,16.63
2023-02-13T18:27:03.920Z,15.57
2023-02-13T18:32:12.211Z,16.30
2023-02-13T18:37:21.232Z,24.77
2023-02-13T18:42:26.338Z,17.27
2023-02-13T18:47:32.042Z,16.40
2023-02-13T18:52:39.703Z,16.67
2023-02-13T18:57:46.192Z,16.93
2023-02-13T19:02:51.318Z,16.77
2023-02-13T19:08:00.641Z,16.90
2023-02-13T19:13:07.034Z,17.63
2023-02-13T19:18:12.272Z,15.17
2023-02-13T19:23:19.981Z,15.30
2023-02-13T19:28:25.530Z,15.50
2023-02-13T19:33:33.308Z,14.93
2023-02-13T19:38:43.359Z,15.20
2023-02-13T19:43:51.137Z,12.57
2023-02-13T19:49:01.177Z,13.77
2023-02-13T19:54:11.629Z,14.83
2023-02-13T19:59:17.337Z,14.63
2023-02-13T20:04:22.871Z,13.27
2023-02-13T20:09:31.059Z,14.67
2023-02-13T20:14:36.957Z,14.77
2023-02-13T20:19:42.446Z,12.77
2023-02-13T20:24:52.396Z,11.30
2023-02-13T20:30:06.602Z,12.30
2023-02-13T20:35:15.764Z,15.00
2023-02-13T20:40:24.139Z,13.23
2023-02-13T20:45:29.745Z,12.07
2023-02-13T20:50:35.210Z,11.83
2023-02-13T20:55:43.307Z,14.73
2023-02-13T21:00:48.570Z,16.43
2023-02-13T21:05:53.583Z,15.77
2023-02-13T21:11:06.964Z,11.90
2023-02-13T21:16:16.263Z,9.67
2023-02-13T21:21:24.426Z,8.97
2023-02-13T21:26:33.344Z,9.77
2023-02-13T21:31:45.260Z,11.00
2023-02-13T21:36:52.985Z,8.90
2023-02-13T21:42:02.446Z,8.47
2023-02-13T21:47:09.342Z,8.30
2023-02-13T21:52:14.722Z,8.70
2023-02-13T21:57:25.009Z,8.53
2023-02-13T22:02:32.400Z,8.07
2023-02-13T22:07:58.927Z,9.37
2023-02-13T22:13:06.867Z,8.63
2023-02-13T22:18:11.970Z,8.20
2023-02-13T22:23:16.867Z,7.33
2023-02-13T22:28:24.512Z,7.50
2023-02-13T22:33:30.241Z,7.67
2023-02-13T22:38:35.640Z,7.80
2023-02-13T22:43:44.250Z,7.80
2023-02-13T22:48:52.066Z,7.20
2023-02-13T22:53:58.470Z,7.43
2023-02-13T22:59:06.105Z,7.87
2023-02-13T23:04:12.688Z,7.90
2023-02-13T23:09:17.955Z,7.83
2023-02-13T23:14:27.945Z,9.40
2023-02-13T23:19:33.121Z,9.50
2023-02-13T23:24:38.169Z,9.13
2023-02-13T23:29:46.021Z,8.63
2023-02-13T23:34:50.969Z,8.70
2023-02-13T23:39:55.892Z,8.87
2023-02-13T23:45:03.431Z,8.97
2023-02-13T23:50:12.339Z,8.57
2023-02-13T23:55:17.220Z,9.17
